Schley, Wisconsin
Current Conditions -  °F | °C
As of 10:15 AM on Saturday 22 Nov 2014 (Local Time) from KRRL Reporting Station
Haze Haze  
Wind Chill: 25°   Ceiling: 500
Heat Index: 33°   Visibility: 4mi
Dew Point: 32°   Wind: 10mph
Humidity: 96%   Direction: 240°WSW
Pressure: 29.78"   Gusts: NA
Location:  45.2167°N, 89.8732°W
Report Text: KRRL 221615Z AUTO 24009KT 4SM BR OVC005 01/00 A2978 RMK AO2 T00050000
Loading
Personal Weather Stations






























Interactive Weather Map New forecast layout! Learn more

10-Day Weather Forecast

Advertisements
Track Severe Weather on mobile